sensor_id;sensor_type;location;lat;lon;timestamp;P1;durP1;ratioP1;P2;durP2;ratioP2
21837;SDS011;11081;45.946;6.140;2022-10-31T00:00:48;9.48;;;3.85;;
21837;SDS011;11081;45.946;6.140;2022-10-31T00:03:16;9.38;;;3.80;;
21837;SDS011;11081;45.946;6.140;2022-10-31T00:05:47;13.30;;;4.32;;
21837;SDS011;11081;45.946;6.140;2022-10-31T00:08:17;11.85;;;3.97;;
21837;SDS011;11081;45.946;6.140;2022-10-31T00:10:45;9.40;;;4.15;;
21837;SDS011;11081;45.946;6.140;2022-10-31T00:13:13;14.15;;;3.90;;
21837;SDS011;11081;45.946;6.140;2022-10-31T00:15:43;9.43;;;4.00;;
21837;SDS011;11081;45.946;6.140;2022-10-31T00:18:11;12.50;;;4.53;;
21837;SDS011;11081;45.946;6.140;2022-10-31T00:20:39;11.57;;;4.10;;
21837;SDS011;11081;45.946;6.140;2022-10-31T00:23:07;10.93;;;3.80;;
21837;SDS011;11081;45.946;6.140;2022-10-31T00:25:37;9.68;;;4.50;;
21837;SDS011;11081;45.946;6.140;2022-10-31T00:28:06;12.65;;;4.07;;
21837;SDS011;11081;45.946;6.140;2022-10-31T00:30:38;13.82;;;4.40;;
21837;SDS011;11081;45.946;6.140;2022-10-31T00:33:07;9.75;;;4.22;;
21837;SDS011;11081;45.946;6.140;2022-10-31T00:35:35;9.93;;;4.30;;
21837;SDS011;11081;45.946;6.140;2022-10-31T00:38:03;15.88;;;4.22;;
21837;SDS011;11081;45.946;6.140;2022-10-31T00:40:31;11.32;;;4.25;;
21837;SDS011;11081;45.946;6.140;2022-10-31T00:42:59;12.35;;;4.43;;
21837;SDS011;11081;45.946;6.140;2022-10-31T00:45:28;11.68;;;4.50;;
21837;SDS011;11081;45.946;6.140;2022-10-31T00:47:56;12.75;;;4.18;;
21837;SDS011;11081;45.946;6.140;2022-10-31T00:50:26;10.60;;;4.50;;
21837;SDS011;11081;45.946;6.140;2022-10-31T00:52:54;8.30;;;3.97;;
21837;SDS011;11081;45.946;6.140;2022-10-31T00:55:23;17.58;;;4.72;;
21837;SDS011;11081;45.946;6.140;2022-10-31T00:57:52;13.65;;;4.60;;
21837;SDS011;11081;45.946;6.140;2022-10-31T01:00:20;12.65;;;4.60;;
21837;SDS011;11081;45.946;6.140;2022-10-31T01:02:49;11.23;;;3.70;;
21837;SDS011;11081;45.946;6.140;2022-10-31T01:05:17;12.35;;;4.55;;
21837;SDS011;11081;45.946;6.140;2022-10-31T01:07:47;10.07;;;3.95;;
21837;SDS011;11081;45.946;6.140;2022-10-31T01:10:15;13.85;;;4.18;;
21837;SDS011;11081;45.946;6.140;2022-10-31T01:12:45;14.98;;;5.55;;
21837;SDS011;11081;45.946;6.140;2022-10-31T01:15:14;14.27;;;4.35;;
21837;SDS011;11081;45.946;6.140;2022-10-31T01:17:44;8.93;;;4.22;;
21837;SDS011;11081;45.946;6.140;2022-10-31T01:20:13;10.88;;;4.03;;
21837;SDS011;11081;45.946;6.140;2022-10-31T01:22:42;13.38;;;4.53;;
21837;SDS011;11081;45.946;6.140;2022-10-31T01:25:11;8.32;;;3.95;;
21837;SDS011;11081;45.946;6.140;2022-10-31T01:27:40;13.43;;;4.72;;
21837;SDS011;11081;45.946;6.140;2022-10-31T01:30:10;10.10;;;4.40;;
21837;SDS011;11081;45.946;6.140;2022-10-31T01:32:38;9.32;;;4.68;;
21837;SDS011;11081;45.946;6.140;2022-10-31T01:35:06;14.90;;;4.20;;
21837;SDS011;11081;45.946;6.140;2022-10-31T01:37:34;8.45;;;4.28;;
21837;SDS011;11081;45.946;6.140;2022-10-31T01:40:03;14.38;;;3.97;;
21837;SDS011;11081;45.946;6.140;2022-10-31T01:42:33;10.25;;;4.32;;
21837;SDS011;11081;45.946;6.140;2022-10-31T01:45:02;12.38;;;4.38;;
21837;SDS011;11081;45.946;6.140;2022-10-31T01:47:37;13.18;;;4.00;;
21837;SDS011;11081;45.946;6.140;2022-10-31T01:50:13;10.52;;;4.07;;
21837;SDS011;11081;45.946;6.140;2022-10-31T01:52:47;9.25;;;3.95;;
21837;SDS011;11081;45.946;6.140;2022-10-31T01:55:19;12.48;;;4.25;;
21837;SDS011;11081;45.946;6.140;2022-10-31T01:57:57;13.82;;;4.65;;
21837;SDS011;11081;45.946;6.140;2022-10-31T02:00:30;7.53;;;3.63;;
21837;SDS011;11081;45.946;6.140;2022-10-31T02:02:58;12.70;;;4.20;;
21837;SDS011;11081;45.946;6.140;2022-10-31T02:05:28;10.27;;;4.00;;
21837;SDS011;11081;45.946;6.140;2022-10-31T02:07:58;10.48;;;3.88;;
21837;SDS011;11081;45.946;6.140;2022-10-31T02:10:29;11.93;;;4.28;;
21837;SDS011;11081;45.946;6.140;2022-10-31T02:13:01;14.20;;;4.55;;
21837;SDS011;11081;45.946;6.140;2022-10-31T02:15:35;13.88;;;4.57;;
21837;SDS011;11081;45.946;6.140;2022-10-31T02:18:05;12.23;;;4.20;;
21837;SDS011;11081;45.946;6.140;2022-10-31T02:20:37;11.32;;;4.40;;
21837;SDS011;11081;45.946;6.140;2022-10-31T02:32:38;10.23;;;4.28;;
21837;SDS011;11081;45.946;6.140;2022-10-31T02:35:17;9.10;;;4.25;;
21837;SDS011;11081;45.946;6.140;2022-10-31T02:37:56;11.85;;;4.15;;
21837;SDS011;11081;45.946;6.140;2022-10-31T02:40:30;14.30;;;4.20;;
21837;SDS011;11081;45.946;6.140;2022-10-31T02:43:25;7.88;;;3.67;;
21837;SDS011;11081;45.946;6.140;2022-10-31T02:45:59;10.38;;;3.33;;
21837;SDS011;11081;45.946;6.140;2022-10-31T02:48:36;12.90;;;4.55;;
21837;SDS011;11081;45.946;6.140;2022-10-31T02:51:07;14.88;;;4.53;;
21837;SDS011;11081;45.946;6.140;2022-10-31T02:53:37;16.90;;;3.95;;
21837;SDS011;11081;45.946;6.140;2022-10-31T02:56:08;14.48;;;4.38;;
21837;SDS011;11081;45.946;6.140;2022-10-31T02:58:42;9.70;;;4.10;;
21837;SDS011;11081;45.946;6.140;2022-10-31T03:01:22;11.32;;;4.38;;
21837;SDS011;11081;45.946;6.140;2022-10-31T03:04:10;10.75;;;4.35;;
21837;SDS011;11081;45.946;6.140;2022-10-31T03:06:52;9.82;;;4.07;;
21837;SDS011;11081;45.946;6.140;2022-10-31T03:09:27;7.25;;;3.50;;
21837;SDS011;11081;45.946;6.140;2022-10-31T03:12:08;10.77;;;3.90;;
21837;SDS011;11081;45.946;6.140;2022-10-31T03:14:43;11.93;;;3.97;;
21837;SDS011;11081;45.946;6.140;2022-10-31T03:17:21;14.43;;;4.32;;
21837;SDS011;11081;45.946;6.140;2022-10-31T03:19:56;13.95;;;4.15;;
21837;SDS011;11081;45.946;6.140;2022-10-31T03:22:29;11.38;;;4.18;;
21837;SDS011;11081;45.946;6.140;2022-10-31T03:24:59;13.88;;;3.95;;
21837;SDS011;11081;45.946;6.140;2022-10-31T03:27:30;10.80;;;3.97;;
21837;SDS011;11081;45.946;6.140;2022-10-31T03:30:04;11.60;;;4.07;;
21837;SDS011;11081;45.946;6.140;2022-10-31T03:32:49;10.27;;;3.60;;
21837;SDS011;11081;45.946;6.140;2022-10-31T03:35:23;13.10;;;3.92;;
21837;SDS011;11081;45.946;6.140;2022-10-31T03:37:54;13.65;;;3.78;;
21837;SDS011;11081;45.946;6.140;2022-10-31T03:40:23;9.15;;;4.30;;
21837;SDS011;11081;45.946;6.140;2022-10-31T03:42:55;13.80;;;4.20;;
21837;SDS011;11081;45.946;6.140;2022-10-31T03:45:31;13.10;;;4.35;;
21837;SDS011;11081;45.946;6.140;2022-10-31T03:48:03;7.82;;;4.28;;
21837;SDS011;11081;45.946;6.140;2022-10-31T03:50:35;14.15;;;4.45;;
21837;SDS011;11081;45.946;6.140;2022-10-31T03:53:12;14.25;;;4.75;;
21837;SDS011;11081;45.946;6.140;2022-10-31T03:55:46;11.25;;;4.57;;
21837;SDS011;11081;45.946;6.140;2022-10-31T03:58:19;9.73;;;4.00;;
21837;SDS011;11081;45.946;6.140;2022-10-31T04:00:52;14.15;;;4.57;;
21837;SDS011;11081;45.946;6.140;2022-10-31T04:03:24;9.43;;;3.88;;
21837;SDS011;11081;45.946;6.140;2022-10-31T04:05:58;15.23;;;4.47;;
21837;SDS011;11081;45.946;6.140;2022-10-31T04:08:31;9.73;;;4.20;;
21837;SDS011;11081;45.946;6.140;2022-10-31T04:11:04;12.25;;;4.25;;
21837;SDS011;11081;45.946;6.140;2022-10-31T04:13:38;11.45;;;4.00;;
21837;SDS011;11081;45.946;6.140;2022-10-31T04:16:12;13.60;;;4.25;;
21837;SDS011;11081;45.946;6.140;2022-10-31T04:18:43;8.15;;;4.03;;
21837;SDS011;11081;45.946;6.140;2022-10-31T04:21:13;9.18;;;4.15;;
21837;SDS011;11081;45.946;6.140;2022-10-31T04:23:41;10.85;;;4.53;;
21837;SDS011;11081;45.946;6.140;2022-10-31T04:26:17;10.88;;;4.03;;
21837;SDS011;11081;45.946;6.140;2022-10-31T04:28:45;12.55;;;4.43;;
21837;SDS011;11081;45.946;6.140;2022-10-31T04:31:13;9.18;;;3.83;;
21837;SDS011;11081;45.946;6.140;2022-10-31T04:33:44;10.43;;;3.75;;
21837;SDS011;11081;45.946;6.140;2022-10-31T04:36:13;11.00;;;4.32;;
21837;SDS011;11081;45.946;6.140;2022-10-31T04:38:41;12.85;;;4.30;;
21837;SDS011;11081;45.946;6.140;2022-10-31T04:41:26;11.25;;;4.30;;
21837;SDS011;11081;45.946;6.140;2022-10-31T04:44:03;11.90;;;4.50;;
21837;SDS011;11081;45.946;6.140;2022-10-31T04:46:31;9.55;;;3.75;;
21837;SDS011;11081;45.946;6.140;2022-10-31T04:49:01;12.23;;;4.15;;
21837;SDS011;11081;45.946;6.140;2022-10-31T04:51:30;8.30;;;4.07;;
21837;SDS011;11081;45.946;6.140;2022-10-31T04:53:59;9.57;;;3.50;;
21837;SDS011;11081;45.946;6.140;2022-10-31T04:56:30;15.95;;;4.40;;
21837;SDS011;11081;45.946;6.140;2022-10-31T04:59:01;13.07;;;4.03;;
21837;SDS011;11081;45.946;6.140;2022-10-31T05:01:41;9.70;;;3.78;;
21837;SDS011;11081;45.946;6.140;2022-10-31T05:04:10;11.73;;;3.67;;
21837;SDS011;11081;45.946;6.140;2022-10-31T05:06:40;11.23;;;4.30;;
21837;SDS011;11081;45.946;6.140;2022-10-31T05:09:08;11.82;;;4.00;;
21837;SDS011;11081;45.946;6.140;2022-10-31T05:11:37;9.13;;;3.97;;
21837;SDS011;11081;45.946;6.140;2022-10-31T05:14:21;10.65;;;4.75;;
21837;SDS011;11081;45.946;6.140;2022-10-31T05:17:15;11.57;;;4.03;;
21837;SDS011;11081;45.946;6.140;2022-10-31T05:20:18;15.73;;;3.92;;
21837;SDS011;11081;45.946;6.140;2022-10-31T05:23:14;11.07;;;4.28;;
21837;SDS011;11081;45.946;6.140;2022-10-31T05:25:42;12.35;;;4.45;;
21837;SDS011;11081;45.946;6.140;2022-10-31T05:28:11;15.75;;;5.18;;
21837;SDS011;11081;45.946;6.140;2022-10-31T05:30:39;13.93;;;4.72;;
21837;SDS011;11081;45.946;6.140;2022-10-31T05:33:11;14.10;;;4.82;;
21837;SDS011;11081;45.946;6.140;2022-10-31T05:36:08;12.25;;;4.30;;
21837;SDS011;11081;45.946;6.140;2022-10-31T05:39:03;13.77;;;4.60;;
21837;SDS011;11081;45.946;6.140;2022-10-31T05:41:40;8.70;;;3.80;;
21837;SDS011;11081;45.946;6.140;2022-10-31T05:44:14;13.10;;;4.20;;
21837;SDS011;11081;45.946;6.140;2022-10-31T05:46:58;10.85;;;4.05;;
21837;SDS011;11081;45.946;6.140;2022-10-31T05:49:46;10.80;;;4.53;;
21837;SDS011;11081;45.946;6.140;2022-10-31T05:52:23;10.98;;;4.43;;
21837;SDS011;11081;45.946;6.140;2022-10-31T05:55:02;11.73;;;4.13;;
21837;SDS011;11081;45.946;6.140;2022-10-31T05:57:31;9.68;;;4.10;;
21837;SDS011;11081;45.946;6.140;2022-10-31T06:00:00;15.30;;;4.40;;
21837;SDS011;11081;45.946;6.140;2022-10-31T06:02:33;13.30;;;4.35;;
21837;SDS011;11081;45.946;6.140;2022-10-31T06:05:19;12.15;;;4.43;;
21837;SDS011;11081;45.946;6.140;2022-10-31T06:07:48;16.15;;;4.30;;
21837;SDS011;11081;45.946;6.140;2022-10-31T06:10:17;8.25;;;4.25;;
21837;SDS011;11081;45.946;6.140;2022-10-31T06:12:49;13.73;;;4.30;;
21837;SDS011;11081;45.946;6.140;2022-10-31T06:15:27;14.35;;;4.90;;
21837;SDS011;11081;45.946;6.140;2022-10-31T06:17:57;13.05;;;4.75;;
21837;SDS011;11081;45.946;6.140;2022-10-31T06:20:29;12.02;;;4.25;;
21837;SDS011;11081;45.946;6.140;2022-10-31T06:23:02;10.40;;;4.82;;
21837;SDS011;11081;45.946;6.140;2022-10-31T06:25:33;13.15;;;5.03;;
21837;SDS011;11081;45.946;6.140;2022-10-31T06:28:03;11.52;;;4.35;;
21837;SDS011;11081;45.946;6.140;2022-10-31T06:30:47;18.63;;;5.18;;
21837;SDS011;11081;45.946;6.140;2022-10-31T06:33:16;13.82;;;4.18;;
21837;SDS011;11081;45.946;6.140;2022-10-31T06:35:54;10.48;;;3.97;;
21837;SDS011;11081;45.946;6.140;2022-10-31T06:38:22;14.98;;;4.63;;
21837;SDS011;11081;45.946;6.140;2022-10-31T06:40:52;13.25;;;4.88;;
21837;SDS011;11081;45.946;6.140;2022-10-31T06:43:22;10.77;;;4.38;;
21837;SDS011;11081;45.946;6.140;2022-10-31T06:46:01;12.70;;;4.97;;
21837;SDS011;11081;45.946;6.140;2022-10-31T06:48:46;12.60;;;4.40;;
21837;SDS011;11081;45.946;6.140;2022-10-31T06:51:19;14.07;;;4.50;;
21837;SDS011;11081;45.946;6.140;2022-10-31T06:53:49;18.15;;;4.30;;
21837;SDS011;11081;45.946;6.140;2022-10-31T06:56:19;10.50;;;3.88;;
21837;SDS011;11081;45.946;6.140;2022-10-31T06:58:51;11.70;;;3.88;;
21837;SDS011;11081;45.946;6.140;2022-10-31T07:01:34;14.10;;;4.22;;
21837;SDS011;11081;45.946;6.140;2022-10-31T07:04:03;12.18;;;4.28;;
21837;SDS011;11081;45.946;6.140;2022-10-31T07:06:34;13.73;;;3.95;;
21837;SDS011;11081;45.946;6.140;2022-10-31T07:09:02;12.35;;;4.05;;
21837;SDS011;11081;45.946;6.140;2022-10-31T07:11:32;12.23;;;4.15;;
21837;SDS011;11081;45.946;6.140;2022-10-31T07:14:00;15.20;;;4.30;;
21837;SDS011;11081;45.946;6.140;2022-10-31T07:16:28;14.48;;;4.65;;
21837;SDS011;11081;45.946;6.140;2022-10-31T07:18:56;9.93;;;4.32;;
21837;SDS011;11081;45.946;6.140;2022-10-31T07:21:24;9.23;;;3.92;;
21837;SDS011;11081;45.946;6.140;2022-10-31T07:23:52;15.82;;;4.40;;
21837;SDS011;11081;45.946;6.140;2022-10-31T07:26:40;12.45;;;4.68;;
21837;SDS011;11081;45.946;6.140;2022-10-31T07:29:09;17.25;;;4.47;;
21837;SDS011;11081;45.946;6.140;2022-10-31T07:31:37;12.05;;;4.30;;
21837;SDS011;11081;45.946;6.140;2022-10-31T07:34:14;11.52;;;4.45;;
21837;SDS011;11081;45.946;6.140;2022-10-31T07:37:00;13.32;;;4.55;;
21837;SDS011;11081;45.946;6.140;2022-10-31T07:39:29;9.20;;;4.05;;
21837;SDS011;11081;45.946;6.140;2022-10-31T07:41:59;11.07;;;4.00;;
21837;SDS011;11081;45.946;6.140;2022-10-31T07:44:28;19.52;;;4.63;;
21837;SDS011;11081;45.946;6.140;2022-10-31T07:47:28;8.43;;;4.45;;
21837;SDS011;11081;45.946;6.140;2022-10-31T07:50:15;11.70;;;5.20;;
21837;SDS011;11081;45.946;6.140;2022-10-31T07:53:04;12.43;;;4.65;;
21837;SDS011;11081;45.946;6.140;2022-10-31T07:55:53;14.38;;;4.45;;
21837;SDS011;11081;45.946;6.140;2022-10-31T07:58:28;13.48;;;4.50;;
21837;SDS011;11081;45.946;6.140;2022-10-31T08:00:58;14.60;;;4.75;;
21837;SDS011;11081;45.946;6.140;2022-10-31T08:03:37;15.88;;;4.20;;
21837;SDS011;11081;45.946;6.140;2022-10-31T08:06:23;12.93;;;4.25;;
21837;SDS011;11081;45.946;6.140;2022-10-31T08:09:10;11.13;;;4.35;;
21837;SDS011;11081;45.946;6.140;2022-10-31T08:11:39;14.55;;;4.30;;
21837;SDS011;11081;45.946;6.140;2022-10-31T08:14:09;9.60;;;3.92;;
21837;SDS011;11081;45.946;6.140;2022-10-31T08:16:37;16.02;;;4.85;;
21837;SDS011;11081;45.946;6.140;2022-10-31T08:19:06;16.60;;;4.43;;
21837;SDS011;11081;45.946;6.140;2022-10-31T08:21:37;11.45;;;4.10;;
21837;SDS011;11081;45.946;6.140;2022-10-31T08:24:07;8.32;;;4.50;;
21837;SDS011;11081;45.946;6.140;2022-10-31T08:26:35;11.40;;;4.18;;
21837;SDS011;11081;45.946;6.140;2022-10-31T08:29:08;26.35;;;5.32;;
21837;SDS011;11081;45.946;6.140;2022-10-31T08:31:38;10.60;;;4.25;;
21837;SDS011;11081;45.946;6.140;2022-10-31T08:34:27;11.93;;;4.72;;
21837;SDS011;11081;45.946;6.140;2022-10-31T08:37:33;10.40;;;4.43;;
21837;SDS011;11081;45.946;6.140;2022-10-31T08:40:02;14.18;;;4.28;;
21837;SDS011;11081;45.946;6.140;2022-10-31T08:42:33;9.65;;;4.10;;
21837;SDS011;11081;45.946;6.140;2022-10-31T08:45:03;12.13;;;4.13;;
21837;SDS011;11081;45.946;6.140;2022-10-31T08:47:33;11.20;;;3.88;;
21837;SDS011;11081;45.946;6.140;2022-10-31T08:50:01;12.68;;;4.47;;
21837;SDS011;11081;45.946;6.140;2022-10-31T08:52:29;19.00;;;3.90;;
21837;SDS011;11081;45.946;6.140;2022-10-31T08:55:17;15.15;;;4.60;;
21837;SDS011;11081;45.946;6.140;2022-10-31T08:58:01;11.02;;;4.18;;
21837;SDS011;11081;45.946;6.140;2022-10-31T09:00:40;11.55;;;3.97;;
21837;SDS011;11081;45.946;6.140;2022-10-31T09:03:13;9.07;;;3.45;;
21837;SDS011;11081;45.946;6.140;2022-10-31T09:05:43;13.80;;;4.10;;
21837;SDS011;11081;45.946;6.140;2022-10-31T09:08:12;12.30;;;4.28;;
21837;SDS011;11081;45.946;6.140;2022-10-31T09:10:44;8.90;;;3.70;;
21837;SDS011;11081;45.946;6.140;2022-10-31T09:13:17;10.15;;;4.32;;
21837;SDS011;11081;45.946;6.140;2022-10-31T09:16:20;8.32;;;3.53;;
21837;SDS011;11081;45.946;6.140;2022-10-31T09:18:48;16.23;;;4.35;;
21837;SDS011;11081;45.946;6.140;2022-10-31T09:21:16;15.00;;;4.00;;
21837;SDS011;11081;45.946;6.140;2022-10-31T09:23:45;14.85;;;4.10;;
21837;SDS011;11081;45.946;6.140;2022-10-31T09:26:14;17.55;;;3.47;;
21837;SDS011;11081;45.946;6.140;2022-10-31T09:29:00;18.67;;;3.83;;
21837;SDS011;11081;45.946;6.140;2022-10-31T09:31:31;10.48;;;3.20;;
21837;SDS011;11081;45.946;6.140;2022-10-31T09:34:05;10.43;;;3.88;;
21837;SDS011;11081;45.946;6.140;2022-10-31T09:36:36;15.32;;;4.32;;
21837;SDS011;11081;45.946;6.140;2022-10-31T09:39:12;13.20;;;5.40;;
21837;SDS011;11081;45.946;6.140;2022-10-31T09:41:47;12.60;;;5.75;;
21837;SDS011;11081;45.946;6.140;2022-10-31T09:44:27;20.98;;;6.97;;
21837;SDS011;11081;45.946;6.140;2022-10-31T09:47:07;21.95;;;9.38;;
21837;SDS011;11081;45.946;6.140;2022-10-31T09:49:54;23.30;;;10.02;;
21837;SDS011;11081;45.946;6.140;2022-10-31T09:52:36;21.85;;;9.30;;
21837;SDS011;11081;45.946;6.140;2022-10-31T09:55:08;19.25;;;8.90;;
21837;SDS011;11081;45.946;6.140;2022-10-31T09:57:45;17.05;;;8.77;;
21837;SDS011;11081;45.946;6.140;2022-10-31T10:00:16;23.75;;;8.43;;
21837;SDS011;11081;45.946;6.140;2022-10-31T10:02:48;15.45;;;7.32;;
21837;SDS011;11081;45.946;6.140;2022-10-31T10:05:21;12.88;;;6.70;;
21837;SDS011;11081;45.946;6.140;2022-10-31T10:08:00;14.40;;;6.57;;
21837;SDS011;11081;45.946;6.140;2022-10-31T10:10:59;10.40;;;5.40;;
21837;SDS011;11081;45.946;6.140;2022-10-31T10:13:45;16.00;;;6.28;;
21837;SDS011;11081;45.946;6.140;2022-10-31T10:16:25;15.73;;;5.72;;
21837;SDS011;11081;45.946;6.140;2022-10-31T10:19:15;16.10;;;5.35;;
21837;SDS011;11081;45.946;6.140;2022-10-31T10:21:54;12.10;;;5.95;;
21837;SDS011;11081;45.946;6.140;2022-10-31T10:24:32;15.75;;;4.85;;
21837;SDS011;11081;45.946;6.140;2022-10-31T10:27:11;15.90;;;5.20;;
21837;SDS011;11081;45.946;6.140;2022-10-31T10:29:50;9.60;;;5.25;;
21837;SDS011;11081;45.946;6.140;2022-10-31T10:32:26;14.40;;;5.43;;
21837;SDS011;11081;45.946;6.140;2022-10-31T10:34:58;13.23;;;4.97;;
21837;SDS011;11081;45.946;6.140;2022-10-31T10:37:35;15.93;;;5.35;;
21837;SDS011;11081;45.946;6.140;2022-10-31T10:40:08;13.55;;;4.75;;
21837;SDS011;11081;45.946;6.140;2022-10-31T10:42:44;12.70;;;4.88;;
21837;SDS011;11081;45.946;6.140;2022-10-31T10:45:35;15.15;;;4.38;;
21837;SDS011;11081;45.946;6.140;2022-10-31T10:48:25;9.38;;;4.55;;
21837;SDS011;11081;45.946;6.140;2022-10-31T10:51:00;19.08;;;4.85;;
21837;SDS011;11081;45.946;6.140;2022-10-31T10:53:38;12.80;;;4.47;;
21837;SDS011;11081;45.946;6.140;2022-10-31T10:56:36;14.45;;;4.60;;
21837;SDS011;11081;45.946;6.140;2022-10-31T10:59:10;14.02;;;4.85;;
21837;SDS011;11081;45.946;6.140;2022-10-31T11:01:40;12.80;;;4.55;;
21837;SDS011;11081;45.946;6.140;2022-10-31T11:04:14;11.70;;;4.40;;
21837;SDS011;11081;45.946;6.140;2022-10-31T11:07:07;15.10;;;4.78;;
21837;SDS011;11081;45.946;6.140;2022-10-31T11:09:37;17.20;;;4.68;;
21837;SDS011;11081;45.946;6.140;2022-10-31T11:12:07;14.18;;;4.43;;
21837;SDS011;11081;45.946;6.140;2022-10-31T11:14:37;18.77;;;5.25;;
21837;SDS011;11081;45.946;6.140;2022-10-31T11:17:17;17.35;;;4.85;;
21837;SDS011;11081;45.946;6.140;2022-10-31T11:20:02;17.08;;;4.80;;
21837;SDS011;11081;45.946;6.140;2022-10-31T11:22:34;15.52;;;4.97;;
21837;SDS011;11081;45.946;6.140;2022-10-31T11:25:11;15.65;;;5.60;;
21837;SDS011;11081;45.946;6.140;2022-10-31T11:27:58;18.52;;;6.32;;
21837;SDS011;11081;45.946;6.140;2022-10-31T11:30:26;23.05;;;6.53;;
21837;SDS011;11081;45.946;6.140;2022-10-31T11:32:55;12.85;;;5.75;;
21837;SDS011;11081;45.946;6.140;2022-10-31T11:35:24;22.63;;;6.63;;
21837;SDS011;11081;45.946;6.140;2022-10-31T11:37:56;19.75;;;5.95;;
21837;SDS011;11081;45.946;6.140;2022-10-31T11:40:29;15.48;;;6.07;;
21837;SDS011;11081;45.946;6.140;2022-10-31T11:42:57;14.13;;;5.85;;
21837;SDS011;11081;45.946;6.140;2022-10-31T11:45:28;16.80;;;6.15;;
21837;SDS011;11081;45.946;6.140;2022-10-31T11:47:59;19.23;;;6.00;;
21837;SDS011;11081;45.946;6.140;2022-10-31T11:50:31;14.93;;;6.32;;
21837;SDS011;11081;45.946;6.140;2022-10-31T11:53:10;12.77;;;5.70;;
21837;SDS011;11081;45.946;6.140;2022-10-31T11:55:42;14.77;;;6.25;;
21837;SDS011;11081;45.946;6.140;2022-10-31T11:58:22;16.65;;;6.00;;
21837;SDS011;11081;45.946;6.140;2022-10-31T12:00:52;21.92;;;6.00;;
21837;SDS011;11081;45.946;6.140;2022-10-31T12:03:41;15.32;;;5.82;;
21837;SDS011;11081;45.946;6.140;2022-10-31T12:06:16;22.67;;;6.18;;
21837;SDS011;11081;45.946;6.140;2022-10-31T12:08:50;13.93;;;6.20;;
21837;SDS011;11081;45.946;6.140;2022-10-31T12:11:23;20.42;;;6.63;;
21837;SDS011;11081;45.946;6.140;2022-10-31T12:14:08;19.42;;;5.93;;
21837;SDS011;11081;45.946;6.140;2022-10-31T12:16:46;23.00;;;6.60;;
21837;SDS011;11081;45.946;6.140;2022-10-31T12:19:22;14.05;;;6.38;;
21837;SDS011;11081;45.946;6.140;2022-10-31T12:22:04;13.85;;;5.90;;
21837;SDS011;11081;45.946;6.140;2022-10-31T12:24:58;19.35;;;5.47;;
21837;SDS011;11081;45.946;6.140;2022-10-31T12:27:44;14.43;;;5.03;;
21837;SDS011;11081;45.946;6.140;2022-10-31T12:30:28;15.82;;;5.50;;
21837;SDS011;11081;45.946;6.140;2022-10-31T12:33:20;15.50;;;5.72;;
21837;SDS011;11081;45.946;6.140;2022-10-31T12:36:01;16.05;;;5.72;;
21837;SDS011;11081;45.946;6.140;2022-10-31T12:38:53;14.45;;;5.80;;
21837;SDS011;11081;45.946;6.140;2022-10-31T12:41:44;11.77;;;5.15;;
21837;SDS011;11081;45.946;6.140;2022-10-31T12:44:29;16.67;;;6.22;;
21837;SDS011;11081;45.946;6.140;2022-10-31T12:47:20;17.50;;;5.60;;
21837;SDS011;11081;45.946;6.140;2022-10-31T12:50:20;13.25;;;6.25;;
21837;SDS011;11081;45.946;6.140;2022-10-31T12:52:58;15.70;;;5.00;;
21837;SDS011;11081;45.946;6.140;2022-10-31T12:55:40;17.60;;;5.10;;
21837;SDS011;11081;45.946;6.140;2022-10-31T12:58:19;19.23;;;5.22;;
21837;SDS011;11081;45.946;6.140;2022-10-31T13:00:51;17.27;;;5.38;;
21837;SDS011;11081;45.946;6.140;2022-10-31T13:03:30;14.38;;;4.88;;
21837;SDS011;11081;45.946;6.140;2022-10-31T13:06:05;16.20;;;5.30;;
21837;SDS011;11081;45.946;6.140;2022-10-31T13:08:38;11.50;;;5.07;;
21837;SDS011;11081;45.946;6.140;2022-10-31T13:11:11;21.05;;;5.72;;
21837;SDS011;11081;45.946;6.140;2022-10-31T13:13:47;15.38;;;5.28;;
21837;SDS011;11081;45.946;6.140;2022-10-31T13:16:22;15.35;;;5.13;;
21837;SDS011;11081;45.946;6.140;2022-10-31T13:18:54;14.88;;;5.10;;
21837;SDS011;11081;45.946;6.140;2022-10-31T13:21:26;18.70;;;4.82;;
21837;SDS011;11081;45.946;6.140;2022-10-31T13:23:58;14.20;;;4.97;;
21837;SDS011;11081;45.946;6.140;2022-10-31T13:26:34;19.73;;;5.43;;
21837;SDS011;11081;45.946;6.140;2022-10-31T13:29:11;20.13;;;5.38;;
21837;SDS011;11081;45.946;6.140;2022-10-31T13:31:45;12.38;;;5.20;;
21837;SDS011;11081;45.946;6.140;2022-10-31T13:34:21;10.02;;;4.65;;
21837;SDS011;11081;45.946;6.140;2022-10-31T13:36:59;11.13;;;4.28;;
21837;SDS011;11081;45.946;6.140;2022-10-31T13:39:34;12.13;;;4.50;;
21837;SDS011;11081;45.946;6.140;2022-10-31T13:42:28;17.17;;;4.90;;
21837;SDS011;11081;45.946;6.140;2022-10-31T13:45:13;13.60;;;5.03;;
21837;SDS011;11081;45.946;6.140;2022-10-31T13:47:42;18.10;;;5.72;;
21837;SDS011;11081;45.946;6.140;2022-10-31T13:50:20;14.68;;;4.95;;
21837;SDS011;11081;45.946;6.140;2022-10-31T13:52:50;21.38;;;5.30;;
21837;SDS011;11081;45.946;6.140;2022-10-31T13:55:38;13.73;;;5.95;;
21837;SDS011;11081;45.946;6.140;2022-10-31T13:58:21;14.80;;;5.53;;
21837;SDS011;11081;45.946;6.140;2022-10-31T14:01:05;16.75;;;5.38;;
21837;SDS011;11081;45.946;6.140;2022-10-31T14:03:44;16.65;;;5.60;;
21837;SDS011;11081;45.946;6.140;2022-10-31T14:06:34;22.85;;;6.30;;
21837;SDS011;11081;45.946;6.140;2022-10-31T14:09:05;15.30;;;5.75;;
21837;SDS011;11081;45.946;6.140;2022-10-31T14:11:44;17.10;;;5.55;;
21837;SDS011;11081;45.946;6.140;2022-10-31T14:14:14;15.10;;;6.07;;
21837;SDS011;11081;45.946;6.140;2022-10-31T14:16:44;18.25;;;5.97;;
21837;SDS011;11081;45.946;6.140;2022-10-31T14:19:19;18.08;;;5.90;;
21837;SDS011;11081;45.946;6.140;2022-10-31T14:21:48;24.63;;;5.68;;
21837;SDS011;11081;45.946;6.140;2022-10-31T14:24:30;16.75;;;5.78;;
21837;SDS011;11081;45.946;6.140;2022-10-31T14:27:01;19.17;;;5.18;;
21837;SDS011;11081;45.946;6.140;2022-10-31T14:29:30;17.98;;;5.88;;
21837;SDS011;11081;45.946;6.140;2022-10-31T14:32:03;13.15;;;5.60;;
21837;SDS011;11081;45.946;6.140;2022-10-31T14:34:38;15.52;;;5.90;;
21837;SDS011;11081;45.946;6.140;2022-10-31T14:37:18;18.25;;;5.07;;
21837;SDS011;11081;45.946;6.140;2022-10-31T14:40:02;16.73;;;5.40;;
21837;SDS011;11081;45.946;6.140;2022-10-31T14:42:41;14.60;;;5.60;;
21837;SDS011;11081;45.946;6.140;2022-10-31T14:45:31;16.67;;;5.68;;
21837;SDS011;11081;45.946;6.140;2022-10-31T14:48:15;24.13;;;5.55;;
21837;SDS011;11081;45.946;6.140;2022-10-31T14:51:01;14.50;;;5.65;;
21837;SDS011;11081;45.946;6.140;2022-10-31T14:53:32;15.70;;;5.88;;
21837;SDS011;11081;45.946;6.140;2022-10-31T14:56:02;16.17;;;5.57;;
21837;SDS011;11081;45.946;6.140;2022-10-31T14:58:40;16.30;;;5.28;;
21837;SDS011;11081;45.946;6.140;2022-10-31T15:01:15;14.77;;;5.78;;
21837;SDS011;11081;45.946;6.140;2022-10-31T15:03:51;12.55;;;4.43;;
21837;SDS011;11081;45.946;6.140;2022-10-31T15:06:40;17.52;;;5.57;;
21837;SDS011;11081;45.946;6.140;2022-10-31T15:09:21;16.50;;;5.63;;
21837;SDS011;11081;45.946;6.140;2022-10-31T15:11:51;13.90;;;5.22;;
21837;SDS011;11081;45.946;6.140;2022-10-31T15:14:23;12.23;;;5.72;;
21837;SDS011;11081;45.946;6.140;2022-10-31T15:16:53;24.23;;;5.22;;
21837;SDS011;11081;45.946;6.140;2022-10-31T15:19:25;21.30;;;5.35;;
21837;SDS011;11081;45.946;6.140;2022-10-31T15:21:55;18.88;;;5.82;;
21837;SDS011;11081;45.946;6.140;2022-10-31T15:24:25;13.63;;;5.32;;
21837;SDS011;11081;45.946;6.140;2022-10-31T15:26:59;16.42;;;5.25;;
21837;SDS011;11081;45.946;6.140;2022-10-31T15:29:30;12.77;;;5.28;;
21837;SDS011;11081;45.946;6.140;2022-10-31T15:31:59;18.70;;;5.78;;